createdAt,value
2017-12-08T00:02:00.920Z,5.10
2017-12-08T00:04:29.251Z,6.70
2017-12-08T00:06:57.482Z,7.17
2017-12-08T00:09:27.244Z,6.77
2017-12-08T00:11:55.479Z,6.33
2017-12-08T00:14:23.934Z,8.23
2017-12-08T00:16:55.091Z,6.13
2017-12-08T00:19:24.359Z,6.30
2017-12-08T00:21:53.459Z,6.67
2017-12-08T00:24:23.425Z,8.63
2017-12-08T00:26:51.679Z,7.57
2017-12-08T00:29:21.869Z,7.57
2017-12-08T00:31:52.360Z,9.77
2017-12-08T00:34:23.123Z,7.20
2017-12-08T00:36:52.377Z,9.37
2017-12-08T00:39:21.853Z,7.47
2017-12-08T00:41:50.791Z,7.97
2017-12-08T00:44:21.010Z,9.90
2017-12-08T00:47:00.038Z,7.80
2017-12-08T00:49:32.514Z,8.70
2017-12-08T00:52:05.407Z,8.87
2017-12-08T00:54:37.809Z,8.43
2017-12-08T00:57:09.895Z,7.97
2017-12-08T00:59:40.735Z,9.43
2017-12-08T01:02:12.515Z,9.30
2017-12-08T01:04:43.280Z,8.60
2017-12-08T01:07:12.435Z,8.40
2017-12-08T01:09:44.326Z,9.43
2017-12-08T01:12:14.926Z,10.37
2017-12-08T01:14:44.069Z,10.97
2017-12-08T01:17:13.374Z,8.97
2017-12-08T01:19:43.229Z,10.63
2017-12-08T01:22:12.352Z,10.00
2017-12-08T01:24:41.730Z,10.30
2017-12-08T01:27:11.064Z,11.73
2017-12-08T01:29:40.939Z,10.23
2017-12-08T01:32:11.266Z,10.20
2017-12-08T01:34:40.191Z,9.90
2017-12-08T01:37:10.785Z,9.90
2017-12-08T01:39:39.990Z,10.20
2017-12-08T01:42:11.353Z,9.57
2017-12-08T01:44:41.364Z,9.13
2017-12-08T01:47:10.652Z,9.30
2017-12-08T01:49:40.525Z,9.90
2017-12-08T01:52:08.876Z,8.83
2017-12-08T01:54:37.756Z,10.07
2017-12-08T01:57:07.855Z,9.77
2017-12-08T01:59:36.675Z,10.40
2017-12-08T02:02:05.539Z,8.63
2017-12-08T02:04:34.890Z,9.63
2017-12-08T02:07:03.329Z,9.27
2017-12-08T02:09:34.876Z,9.77
2017-12-08T02:12:03.947Z,10.10
2017-12-08T02:14:35.329Z,8.93
2017-12-08T02:17:04.399Z,9.43
2017-12-08T02:19:32.626Z,10.20
2017-12-08T02:22:03.038Z,9.67
2017-12-08T02:24:33.468Z,9.23
2017-12-08T02:27:06.258Z,9.40
2017-12-08T02:29:34.820Z,8.07
2017-12-08T02:32:03.062Z,10.37
2017-12-08T02:34:31.335Z,9.63
2017-12-08T02:36:59.607Z,8.60
2017-12-08T02:39:29.665Z,9.40
2017-12-08T02:41:57.908Z,10.00
2017-12-08T02:44:26.149Z,8.80
2017-12-08T02:46:54.446Z,8.90
2017-12-08T02:49:24.680Z,8.93
2017-12-08T02:51:54.054Z,10.20
2017-12-08T02:54:25.391Z,9.70
2017-12-08T02:56:54.893Z,7.83
2017-12-08T02:59:25.631Z,5.27
2017-12-08T03:01:53.889Z,4.70
2017-12-08T03:04:23.525Z,4.27
2017-12-08T03:06:57.805Z,4.57
2017-12-08T03:09:27.540Z,5.50
2017-12-08T03:11:59.576Z,3.70
2017-12-08T03:14:30.261Z,4.57
2017-12-08T03:16:58.595Z,4.97
2017-12-08T03:19:28.751Z,4.47
2017-12-08T03:21:57.431Z,5.40
2017-12-08T03:24:28.458Z,3.90
2017-12-08T03:26:58.540Z,8.10
2017-12-08T03:29:29.195Z,5.93
2017-12-08T03:31:59.205Z,6.23
2017-12-08T03:34:28.883Z,6.97
2017-12-08T03:36:58.254Z,7.00
2017-12-08T03:39:26.570Z,7.63
2017-12-08T03:41:56.352Z,6.60
2017-12-08T03:44:25.373Z,9.57
2017-12-08T03:46:54.846Z,8.90
2017-12-08T03:49:24.154Z,8.23
2017-12-08T03:51:55.053Z,20.10
2017-12-08T03:54:23.324Z,7.97
2017-12-08T03:56:51.703Z,6.70
2017-12-08T03:59:20.695Z,6.60
2017-12-08T04:01:48.966Z,6.70
2017-12-08T04:04:19.335Z,6.07
2017-12-08T04:06:48.564Z,6.43
2017-12-08T04:09:19.374Z,7.07
2017-12-08T04:11:48.890Z,6.60
2017-12-08T04:14:20.074Z,6.37
2017-12-08T04:16:50.298Z,6.20
2017-12-08T04:19:19.584Z,6.60
2017-12-08T04:21:53.075Z,5.63
2017-12-08T04:24:23.066Z,4.27
2017-12-08T04:26:54.887Z,3.60
2017-12-08T04:29:23.169Z,3.10
2017-12-08T04:31:53.993Z,2.70
2017-12-08T04:34:23.157Z,3.57
2017-12-08T04:36:56.066Z,4.50
2017-12-08T04:39:26.986Z,3.07
2017-12-08T04:41:55.444Z,3.17
2017-12-08T04:44:29.104Z,3.80
2017-12-08T04:47:01.189Z,3.80
2017-12-08T04:49:30.269Z,4.00
2017-12-08T04:51:58.552Z,3.87
2017-12-08T04:54:29.372Z,3.40
2017-12-08T04:56:59.220Z,4.40
2017-12-08T04:59:31.214Z,5.00
2017-12-08T05:02:01.939Z,4.47
2017-12-08T05:04:31.115Z,3.67
2017-12-08T05:07:01.266Z,5.20
2017-12-08T05:09:30.373Z,5.43
2017-12-08T05:11:58.591Z,3.60
2017-12-08T05:14:27.689Z,4.67
2017-12-08T05:16:55.967Z,3.40
2017-12-08T05:19:26.237Z,4.63
2017-12-08T05:21:55.054Z,4.40
2017-12-08T05:24:24.929Z,4.80
2017-12-08T05:26:53.975Z,6.60
2017-12-08T05:29:23.233Z,6.80
2017-12-08T05:31:52.330Z,4.73
2017-12-08T05:34:20.616Z,4.30
2017-12-08T05:36:49.856Z,4.40
2017-12-08T05:39:18.873Z,4.30
2017-12-08T05:41:47.159Z,4.70
2017-12-08T05:44:18.344Z,5.10
2017-12-08T05:46:46.626Z,4.57
2017-12-08T05:49:17.513Z,5.20
2017-12-08T05:51:48.308Z,4.47
2017-12-08T05:54:16.807Z,4.40
2017-12-08T05:56:47.959Z,5.40
2017-12-08T05:59:20.105Z,5.97
2017-12-08T06:01:49.206Z,4.90
2017-12-08T06:04:18.949Z,6.57
2017-12-08T06:06:48.070Z,5.63
2017-12-08T06:09:16.940Z,6.43
2017-12-08T06:11:46.264Z,6.40
2017-12-08T06:14:16.916Z,5.40
2017-12-08T06:16:46.464Z,6.57
2017-12-08T06:19:16.827Z,6.70
2017-12-08T06:21:48.826Z,6.50
2017-12-08T06:24:20.372Z,6.07
2017-12-08T06:26:50.851Z,8.20
2017-12-08T06:29:19.156Z,5.17
2017-12-08T06:31:48.383Z,6.43
2017-12-08T06:34:18.096Z,6.10
2017-12-08T06:36:49.496Z,4.77
2017-12-08T06:39:18.878Z,4.53
2017-12-08T06:41:49.490Z,7.10
2017-12-08T06:44:19.145Z,5.07
2017-12-08T06:46:50.134Z,4.60
2017-12-08T06:49:21.927Z,5.83
2017-12-08T06:51:50.963Z,4.60
2017-12-08T06:54:21.468Z,5.33
2017-12-08T06:56:52.782Z,6.20
2017-12-08T06:59:23.339Z,5.50
2017-12-08T07:01:54.934Z,5.73
2017-12-08T07:04:25.140Z,4.50
2017-12-08T07:06:53.997Z,4.80
2017-12-08T07:09:23.932Z,4.87
2017-12-08T07:11:54.258Z,4.20
2017-12-08T07:14:24.161Z,4.60
2017-12-08T07:16:52.502Z,5.90
2017-12-08T07:19:20.937Z,5.80
2017-12-08T07:21:50.313Z,4.20
2017-12-08T07:24:22.990Z,5.20
2017-12-08T07:26:51.483Z,3.20
2017-12-08T07:29:23.197Z,5.20
2017-12-08T07:31:53.262Z,4.70
2017-12-08T07:34:22.457Z,4.23
2017-12-08T07:36:51.957Z,5.10
2017-12-08T07:39:22.172Z,5.37
2017-12-08T07:41:52.374Z,5.27
2017-12-08T07:44:21.741Z,4.50
2017-12-08T07:46:51.526Z,3.90
2017-12-08T07:49:21.287Z,5.17
2017-12-08T07:51:51.561Z,5.10
2017-12-08T07:54:23.097Z,5.43
2017-12-08T07:56:55.104Z,4.53
2017-12-08T07:59:25.210Z,5.30
2017-12-08T08:01:56.714Z,5.50
2017-12-08T08:04:25.695Z,5.60
2017-12-08T08:06:54.587Z,4.93
2017-12-08T08:09:23.806Z,4.60
2017-12-08T08:11:52.254Z,6.00
2017-12-08T08:14:20.737Z,5.43
2017-12-08T08:16:53.089Z,5.20
2017-12-08T08:19:22.386Z,5.30
2017-12-08T08:21:51.397Z,4.53
2017-12-08T08:24:19.662Z,5.37
2017-12-08T08:26:47.957Z,5.23
2017-12-08T08:29:16.233Z,5.83
2017-12-08T08:31:44.541Z,6.53
2017-12-08T08:34:12.925Z,5.60
2017-12-08T08:36:42.034Z,5.93
2017-12-08T08:39:10.359Z,5.27
2017-12-08T08:41:38.680Z,7.03
2017-12-08T08:44:06.969Z,5.23
2017-12-08T08:46:35.289Z,6.20
2017-12-08T08:49:03.651Z,6.27
2017-12-08T08:51:32.766Z,6.50
2017-12-08T08:54:01.117Z,5.20
2017-12-08T08:56:29.475Z,4.53
2017-12-08T08:58:58.696Z,4.90
2017-12-08T09:01:27.814Z,3.53
2017-12-08T09:03:56.141Z,3.40
2017-12-08T09:06:24.407Z,2.60
2017-12-08T09:08:52.674Z,2.87
2017-12-08T09:11:21.097Z,2.97
2017-12-08T09:13:49.319Z,3.50
2017-12-08T09:16:17.629Z,3.97
2017-12-08T09:18:45.887Z,3.60
2017-12-08T09:21:14.204Z,4.83
2017-12-08T09:23:43.263Z,3.63
2017-12-08T09:26:11.569Z,4.33
2017-12-08T09:28:39.894Z,3.80
2017-12-08T09:31:08.180Z,4.00
2017-12-08T09:33:36.501Z,4.30
2017-12-08T09:36:04.781Z,4.03
2017-12-08T09:38:33.034Z,4.00
2017-12-08T09:41:01.346Z,3.93
2017-12-08T09:43:29.594Z,4.83
2017-12-08T09:45:57.840Z,3.40
2017-12-08T09:48:26.150Z,3.73
2017-12-08T09:50:54.442Z,4.17
2017-12-08T09:53:22.724Z,4.00
2017-12-08T09:55:51.025Z,2.60
2017-12-08T09:58:20.097Z,3.77
2017-12-08T10:00:48.346Z,4.10
2017-12-08T10:03:16.633Z,4.07
2017-12-08T10:05:44.898Z,3.17
2017-12-08T10:08:13.257Z,2.67
2017-12-08T10:10:42.245Z,3.40
2017-12-08T10:13:10.734Z,3.27
2017-12-08T10:15:39.768Z,2.93
2017-12-08T10:18:08.083Z,4.63
2017-12-08T10:20:37.158Z,3.40
2017-12-08T10:23:06.204Z,3.20
2017-12-08T10:25:34.621Z,4.20
2017-12-08T10:28:02.966Z,3.70
2017-12-08T10:30:31.183Z,3.90
2017-12-08T10:33:00.248Z,4.60
2017-12-08T10:35:28.523Z,5.20
2017-12-08T10:37:56.910Z,5.20
2017-12-08T10:40:25.536Z,5.67
2017-12-08T10:42:54.638Z,4.93
2017-12-08T10:45:23.698Z,6.10
2017-12-08T10:47:51.983Z,5.70
2017-12-08T10:50:20.297Z,6.40
2017-12-08T10:52:49.428Z,5.97
2017-12-08T10:55:17.739Z,6.63
2017-12-08T10:57:46.062Z,7.73
2017-12-08T11:00:15.174Z,5.07
2017-12-08T11:02:43.480Z,5.97
2017-12-08T11:05:11.728Z,3.80
2017-12-08T11:07:40.757Z,5.27
2017-12-08T11:10:09.067Z,5.03
2017-12-08T11:12:37.408Z,4.27
2017-12-08T11:15:06.442Z,4.80
2017-12-08T11:17:35.585Z,4.67
2017-12-08T11:20:03.842Z,4.27
2017-12-08T11:22:32.113Z,5.60
2017-12-08T11:25:00.448Z,5.73
2017-12-08T11:27:28.724Z,7.90
2017-12-08T11:29:58.066Z,4.53
2017-12-08T11:32:26.382Z,4.70
2017-12-08T11:34:54.689Z,3.60
2017-12-08T11:37:23.014Z,5.40
2017-12-08T11:39:51.342Z,5.17
2017-12-08T11:42:19.644Z,4.57
2017-12-08T11:44:48.050Z,4.93
2017-12-08T11:47:17.278Z,4.83
2017-12-08T11:49:45.552Z,4.80
2017-12-08T11:52:13.886Z,3.70
2017-12-08T11:54:42.134Z,4.10
2017-12-08T11:57:11.238Z,3.67
2017-12-08T11:59:39.610Z,3.90
2017-12-08T12:02:08.649Z,4.40
2017-12-08T12:04:36.933Z,3.90
2017-12-08T12:07:05.299Z,4.10
2017-12-08T12:09:34.332Z,3.77
2017-12-08T12:12:02.745Z,2.83
2017-12-08T12:14:31.030Z,4.20
2017-12-08T12:16:59.368Z,3.67
2017-12-08T12:19:27.638Z,5.23
2017-12-08T12:21:55.928Z,5.47
2017-12-08T12:24:24.223Z,4.47
2017-12-08T12:26:52.544Z,5.10
2017-12-08T12:29:21.639Z,3.50
2017-12-08T12:31:50.774Z,4.00
2017-12-08T12:34:19.043Z,4.47
2017-12-08T12:36:47.390Z,5.53
2017-12-08T12:39:16.104Z,4.60
2017-12-08T12:41:45.156Z,9.30
2017-12-08T12:44:14.092Z,8.57
2017-12-08T12:46:43.100Z,3.60
2017-12-08T12:49:11.439Z,4.13
2017-12-08T12:51:40.447Z,4.40
2017-12-08T12:54:09.486Z,7.30
2017-12-08T12:56:37.790Z,6.20
2017-12-08T12:59:06.923Z,4.90
2017-12-08T13:01:35.960Z,5.33
2017-12-08T13:04:04.254Z,7.40
2017-12-08T13:06:32.483Z,6.50
2017-12-08T13:09:01.644Z,5.00
2017-12-08T13:11:30.692Z,5.20
2017-12-08T13:13:58.941Z,4.50
2017-12-08T13:16:27.988Z,5.83
2017-12-08T13:18:56.301Z,6.50
2017-12-08T13:21:25.902Z,4.50
2017-12-08T13:23:54.354Z,4.73
2017-12-08T13:26:22.619Z,4.30
2017-12-08T13:28:50.887Z,6.27
2017-12-08T13:31:19.138Z,4.50
2017-12-08T13:33:48.220Z,3.87
2017-12-08T13:36:16.501Z,5.57
2017-12-08T13:38:45.545Z,7.53
2017-12-08T13:41:14.078Z,4.13
2017-12-08T13:43:43.370Z,5.03
2017-12-08T13:46:12.522Z,6.03
2017-12-08T13:48:42.500Z,4.30
2017-12-08T13:51:11.987Z,4.50
2017-12-08T13:56:53.528Z,3.97
2017-12-08T13:59:22.299Z,4.50
2017-12-08T14:01:50.563Z,4.37
2017-12-08T14:04:19.706Z,5.43
2017-12-08T14:06:48.080Z,3.97
2017-12-08T14:09:17.252Z,5.67
2017-12-08T14:11:46.338Z,4.30
2017-12-08T14:14:15.447Z,5.27
2017-12-08T14:16:44.181Z,4.80
2017-12-08T14:19:12.492Z,5.30
2017-12-08T14:21:40.843Z,5.73
2017-12-08T14:24:09.228Z,4.70
2017-12-08T14:26:37.543Z,6.00
2017-12-08T14:29:06.642Z,6.13
2017-12-08T14:31:34.969Z,7.23
2017-12-08T14:34:03.290Z,6.40
2017-12-08T14:36:31.606Z,6.30
2017-12-08T14:39:00.666Z,5.50
2017-12-08T14:41:29.732Z,6.63
2017-12-08T14:43:58.003Z,6.63
2017-12-08T14:46:26.267Z,7.13
2017-12-08T14:48:54.846Z,6.53
2017-12-08T14:51:23.249Z,6.90
2017-12-08T14:53:51.621Z,5.33
2017-12-08T14:56:19.948Z,7.23
2017-12-08T14:58:48.199Z,7.37
2017-12-08T15:01:16.450Z,5.90
2017-12-08T15:03:45.097Z,5.40
2017-12-08T15:06:14.134Z,6.80
2017-12-08T15:08:43.490Z,6.53
2017-12-08T15:11:11.891Z,5.40
2017-12-08T15:13:40.216Z,6.33
2017-12-08T15:16:08.582Z,6.53
2017-12-08T15:18:36.919Z,4.90
2017-12-08T15:21:06.005Z,5.40
2017-12-08T15:23:34.365Z,5.60
2017-12-08T15:26:02.650Z,4.47
2017-12-08T15:28:30.906Z,5.67
2017-12-08T15:30:59.222Z,5.93
2017-12-08T15:33:29.065Z,6.80
2017-12-08T15:35:57.357Z,4.13
2017-12-08T15:38:25.655Z,4.20
2017-12-08T15:40:54.710Z,4.63
2017-12-08T15:43:22.963Z,7.00
2017-12-08T15:45:52.011Z,5.43
2017-12-08T15:48:20.372Z,4.37
2017-12-08T15:50:48.676Z,5.47
2017-12-08T15:53:17.034Z,3.47
2017-12-08T15:55:45.576Z,12.20
2017-12-08T15:58:13.990Z,5.90
2017-12-08T16:00:42.345Z,6.10
2017-12-08T16:03:11.400Z,6.60
2017-12-08T16:05:40.498Z,5.23
2017-12-08T16:08:08.874Z,6.03
2017-12-08T16:10:37.142Z,7.47
2017-12-08T16:13:05.418Z,7.77
2017-12-08T16:15:33.874Z,7.40
2017-12-08T16:18:02.895Z,6.10
2017-12-08T16:20:31.169Z,6.20
2017-12-08T16:22:59.479Z,6.60
2017-12-08T16:25:27.738Z,4.07
2017-12-08T16:27:56.775Z,5.47
2017-12-08T16:30:25.056Z,4.50
2017-12-08T16:32:53.330Z,5.40
2017-12-08T16:35:22.416Z,4.90
2017-12-08T16:37:50.756Z,4.50
2017-12-08T16:40:18.999Z,4.90
2017-12-08T16:42:47.265Z,5.70
2017-12-08T16:45:16.287Z,4.70
2017-12-08T16:47:44.573Z,5.17
2017-12-08T16:50:12.846Z,4.03
2017-12-08T16:52:41.215Z,5.60
2017-12-08T16:55:09.553Z,5.30
2017-12-08T16:57:39.495Z,4.27
2017-12-08T17:00:09.236Z,6.00
2017-12-08T17:02:37.659Z,5.70
2017-12-08T17:05:05.973Z,6.17
2017-12-08T17:07:35.019Z,6.57
2017-12-08T17:10:03.609Z,5.40
2017-12-08T17:12:31.882Z,8.60
2017-12-08T17:15:00.164Z,7.53
2017-12-08T17:17:29.242Z,6.80
2017-12-08T17:19:58.396Z,7.70
2017-12-08T17:22:27.603Z,19.93
2017-12-08T17:24:55.941Z,7.13
2017-12-08T17:27:25.057Z,6.10
2017-12-08T17:29:54.120Z,6.90
2017-12-08T17:32:23.410Z,6.73
2017-12-08T17:34:52.532Z,7.33
2017-12-08T17:37:20.806Z,9.60
2017-12-08T17:39:49.190Z,5.83
2017-12-08T17:42:18.280Z,6.67
2017-12-08T17:44:46.510Z,6.17
2017-12-08T17:47:14.829Z,6.37
2017-12-08T17:49:43.994Z,5.90
2017-12-08T17:52:12.288Z,6.77
2017-12-08T17:54:40.729Z,6.03
2017-12-08T17:57:09.279Z,12.17
2017-12-08T17:59:37.813Z,6.30
2017-12-08T18:02:06.205Z,5.40
2017-12-08T18:04:35.272Z,6.00
2017-12-08T18:07:04.378Z,4.10
2017-12-08T18:09:33.606Z,7.10
2017-12-08T18:12:02.086Z,4.87
2017-12-08T18:14:30.454Z,4.90
2017-12-08T18:16:58.986Z,3.87
2017-12-08T18:19:28.164Z,3.73
2017-12-08T18:21:56.619Z,4.00
2017-12-08T18:24:24.925Z,7.20
2017-12-08T18:26:53.220Z,3.73
2017-12-08T18:29:21.536Z,5.37
2017-12-08T18:31:50.932Z,4.30
2017-12-08T18:34:20.003Z,5.97
2017-12-08T18:36:48.511Z,4.30
2017-12-08T18:39:16.986Z,4.37
2017-12-08T18:41:46.047Z,5.13
2017-12-08T18:44:14.862Z,5.63
2017-12-08T18:46:43.964Z,4.87
2017-12-08T18:49:12.330Z,5.97
2017-12-08T18:51:41.451Z,4.70
2017-12-08T18:54:09.828Z,6.50
2017-12-08T18:56:38.184Z,4.37
2017-12-08T18:59:07.396Z,4.83
2017-12-08T19:01:37.090Z,4.63
2017-12-08T19:04:05.432Z,6.20
2017-12-08T19:06:33.770Z,5.53
2017-12-08T19:09:02.106Z,4.60
2017-12-08T19:11:30.519Z,5.83
2017-12-08T19:13:58.818Z,5.07
2017-12-08T19:16:27.115Z,5.50
2017-12-08T19:18:55.433Z,6.17
2017-12-08T19:21:24.551Z,5.97
2017-12-08T19:23:52.869Z,6.23
2017-12-08T19:26:22.044Z,6.83
2017-12-08T19:28:51.521Z,6.10
2017-12-08T19:31:19.871Z,6.43
2017-12-08T19:33:48.196Z,5.33
2017-12-08T19:36:16.529Z,7.00
2017-12-08T19:38:45.794Z,5.80
2017-12-08T19:41:14.191Z,7.83
2017-12-08T19:43:42.484Z,6.07
2017-12-08T19:46:11.013Z,8.07
2017-12-08T19:48:39.304Z,9.67
2017-12-08T19:51:07.534Z,7.83
2017-12-08T19:53:35.912Z,8.03
2017-12-08T19:56:04.313Z,7.33
2017-12-08T19:58:32.614Z,8.20
2017-12-08T20:01:01.662Z,7.73
2017-12-08T20:03:29.984Z,7.27
2017-12-08T20:05:58.359Z,7.67
2017-12-08T20:08:26.820Z,7.27
2017-12-08T20:10:56.004Z,8.50
2017-12-08T20:13:24.543Z,6.47
2017-12-08T20:15:52.985Z,8.00
2017-12-08T20:18:21.318Z,9.17
2017-12-08T20:20:49.693Z,7.53
2017-12-08T20:23:19.050Z,9.13
2017-12-08T20:25:49.934Z,9.27
2017-12-08T20:28:18.351Z,8.47
2017-12-08T20:30:46.758Z,8.40
2017-12-08T20:33:15.935Z,9.93
2017-12-08T20:35:44.331Z,10.80
2017-12-08T20:38:12.633Z,9.73
2017-12-08T20:40:40.966Z,9.80
2017-12-08T20:43:09.245Z,11.20
2017-12-08T20:45:37.639Z,10.63
2017-12-08T20:48:05.989Z,12.10
2017-12-08T20:50:34.410Z,10.70
2017-12-08T20:53:03.687Z,12.70
2017-12-08T20:55:34.018Z,11.43
2017-12-08T20:58:04.103Z,11.63
2017-12-08T21:00:32.464Z,10.27
2017-12-08T21:03:01.893Z,11.90
2017-12-08T21:05:32.002Z,12.10
2017-12-08T21:08:02.506Z,12.37
2017-12-08T21:10:31.484Z,11.30
2017-12-08T21:13:00.583Z,12.37
2017-12-08T21:15:29.985Z,10.33
2017-12-08T21:18:01.906Z,10.67
2017-12-08T21:20:33.869Z,9.63
2017-12-08T21:23:03.204Z,10.30
2017-12-08T21:25:31.721Z,11.43
2017-12-08T21:28:00.197Z,11.10
2017-12-08T21:30:28.574Z,10.37
2017-12-08T21:32:57.444Z,9.43
2017-12-08T21:35:26.471Z,9.30
2017-12-08T21:37:54.887Z,9.27
2017-12-08T21:40:23.246Z,7.30
2017-12-08T21:42:51.732Z,8.80
2017-12-08T21:45:19.997Z,8.10
2017-12-08T21:47:48.601Z,7.40
2017-12-08T21:50:17.556Z,7.00
2017-12-08T21:52:47.680Z,8.03
2017-12-08T21:55:17.988Z,6.23
2017-12-08T21:57:47.140Z,6.40
2017-12-08T22:00:15.675Z,6.13
2017-12-08T22:02:44.084Z,5.20
2017-12-08T22:05:12.573Z,4.50
2017-12-08T22:07:41.036Z,4.93
2017-12-08T22:10:10.358Z,5.20
2017-12-08T22:12:38.776Z,5.87
2017-12-08T22:15:07.276Z,4.53
2017-12-08T22:17:35.925Z,4.03
2017-12-08T22:20:04.510Z,3.53
2017-12-08T22:22:32.893Z,4.90
2017-12-08T22:25:01.527Z,4.10
2017-12-08T22:27:29.938Z,4.60
2017-12-08T22:29:58.480Z,3.70
2017-12-08T22:32:27.227Z,4.80
2017-12-08T22:34:55.708Z,4.47
2017-12-08T22:37:24.084Z,4.43
2017-12-08T22:39:52.605Z,4.80
2017-12-08T22:42:20.953Z,5.10
2017-12-08T22:44:49.265Z,4.63
2017-12-08T22:47:17.736Z,6.20
2017-12-08T22:49:46.874Z,6.43
2017-12-08T22:52:15.353Z,7.20
2017-12-08T22:54:43.854Z,5.13
2017-12-08T22:57:12.233Z,5.13
2017-12-08T22:59:41.501Z,5.20
2017-12-08T23:02:09.817Z,5.73
2017-12-08T23:04:39.116Z,4.53
2017-12-08T23:07:07.488Z,6.53
2017-12-08T23:09:35.783Z,5.00
2017-12-08T23:12:04.624Z,5.50
2017-12-08T23:14:32.893Z,6.40
2017-12-08T23:17:01.196Z,5.47
2017-12-08T23:19:30.354Z,5.67
2017-12-08T23:21:58.602Z,5.93
2017-12-08T23:24:27.469Z,5.80
2017-12-08T23:26:56.524Z,5.93
2017-12-08T23:29:24.781Z,5.70
2017-12-08T23:31:53.811Z,6.47
2017-12-08T23:34:22.135Z,5.67
2017-12-08T23:36:50.407Z,5.97
2017-12-08T23:39:18.730Z,6.10
2017-12-08T23:41:47.046Z,5.77
2017-12-08T23:44:16.081Z,6.53
2017-12-08T23:46:44.365Z,6.33
2017-12-08T23:49:12.697Z,5.80
2017-12-08T23:51:41.776Z,5.67
2017-12-08T23:54:10.064Z,7.00
2017-12-08T23:56:39.091Z,4.80
2017-12-08T23:59:07.394Z,5.63
